createdAt,value
2022-10-18T00:01:27.236Z,99814.56
2022-10-18T00:03:29.558Z,99825.91
2022-10-18T00:05:31.796Z,99811.91
2022-10-18T00:07:34.086Z,99829.28
2022-10-18T00:09:39.479Z,99829.22
2022-10-18T00:11:42.865Z,99821.41
2022-10-18T00:13:45.116Z,99796.16
2022-10-18T00:16:03.837Z,99806.53
2022-10-18T00:18:11.162Z,99804.81
2022-10-18T00:20:14.747Z,99799.53
2022-10-18T00:22:16.969Z,99834.34
2022-10-18T00:24:19.118Z,99816.13
2022-10-18T00:26:27.596Z,99797.91
2022-10-18T00:28:30.280Z,99798.75
2022-10-18T00:30:32.472Z,99804.00
2022-10-18T00:32:39.261Z,99784.06
2022-10-18T00:34:41.564Z,99779.75
2022-10-18T00:36:44.401Z,99775.41
2022-10-18T00:38:49.787Z,99790.25
2022-10-18T00:40:52.265Z,99791.16
2022-10-18T00:42:54.474Z,99792.09
2022-10-18T00:45:13.805Z,99790.41
2022-10-18T00:47:18.166Z,99791.31
2022-10-18T00:49:33.378Z,99787.00
2022-10-18T00:51:45.105Z,99773.97
2022-10-18T00:53:48.408Z,99781.81
2022-10-18T00:55:51.222Z,99758.31
2022-10-18T01:00:02.642Z,99761.88
2022-10-18T01:02:07.234Z,99754.06
2022-10-18T01:04:09.655Z,99758.44
2022-10-18T01:06:12.052Z,99759.34
2022-10-18T01:08:17.280Z,99762.81
2022-10-18T01:10:41.345Z,99761.97
2022-10-18T01:12:55.701Z,99757.56
2022-10-18T01:15:10.646Z,99752.31
2022-10-18T01:17:30.982Z,99750.59
2022-10-18T01:19:51.653Z,99744.53
2022-10-18T01:22:06.111Z,99738.41
2022-10-18T01:24:31.029Z,99741.88
2022-10-18T01:26:48.257Z,99741.88
2022-10-18T01:29:11.148Z,99746.22
2022-10-18T01:31:26.063Z,99748.84
2022-10-18T01:33:56.841Z,99735.81
2022-10-18T01:36:18.462Z,99739.25
2022-10-18T01:38:23.500Z,99734.00
2022-10-18T01:40:25.838Z,99735.69
2022-10-18T01:42:28.132Z,99734.00
2022-10-18T01:44:33.096Z,99718.28
2022-10-18T01:46:36.409Z,99717.50
2022-10-18T01:48:38.756Z,99711.38
2022-10-18T01:50:40.882Z,99716.66
2022-10-18T01:52:52.621Z,99723.63
2022-10-18T01:54:56.093Z,99720.19
2022-10-18T01:57:00.324Z,99721.97
2022-10-18T01:59:16.557Z,99707.16
2022-10-18T02:01:25.840Z,99708.06
2022-10-18T02:03:29.751Z,99704.59
2022-10-18T02:06:21.382Z,99720.28
2022-10-18T02:08:47.182Z,99695.88
2022-10-18T02:10:54.848Z,99702.88
2022-10-18T02:13:00.169Z,99702.03
2022-10-18T02:15:05.328Z,99707.28
2022-10-18T02:17:11.199Z,99696.84
2022-10-18T02:19:20.051Z,99695.13
2022-10-18T02:21:25.157Z,99696.00
2022-10-18T02:23:27.934Z,99698.59
2022-10-18T02:25:32.776Z,99696.00
2022-10-18T02:27:35.893Z,99696.88
2022-10-18T02:29:38.995Z,99692.53
2022-10-18T02:31:54.198Z,99683.81
2022-10-18T02:34:02.747Z,99677.72
2022-10-18T02:36:17.112Z,99669.06
2022-10-18T02:38:21.193Z,99632.44
2022-10-18T02:40:24.783Z,99665.56
2022-10-18T02:42:34.533Z,99669.97
2022-10-18T02:44:38.195Z,99669.13
2022-10-18T02:46:40.732Z,99656.88
2022-10-18T02:48:42.773Z,99675.16
2022-10-18T02:50:44.779Z,99669.06
2022-10-18T02:52:46.945Z,99662.13
2022-10-18T02:54:48.975Z,99663.84
2022-10-18T02:56:51.213Z,99658.66
2022-10-18T02:58:53.248Z,99649.94
2022-10-18T03:00:56.789Z,99640.41
2022-10-18T03:03:01.603Z,99640.41
2022-10-18T03:05:03.917Z,99603.81
2022-10-18T03:07:05.982Z,99642.09
2022-10-18T03:09:10.769Z,99638.63
2022-10-18T03:11:13.328Z,99613.38
2022-10-18T03:13:15.677Z,99629.06
2022-10-18T03:15:17.920Z,99629.97
2022-10-18T03:17:20.130Z,99609.91
2022-10-18T03:19:22.346Z,99608.19
2022-10-18T03:21:24.397Z,99612.53
2022-10-18T03:23:26.587Z,99599.47
2022-10-18T03:25:32.158Z,99612.53
2022-10-18T03:27:34.507Z,99595.16
2022-10-18T03:29:36.500Z,99598.66
2022-10-18T03:31:38.815Z,99570.75
2022-10-18T03:33:40.977Z,99597.75
2022-10-18T03:35:43.646Z,99595.16
2022-10-18T03:37:46.133Z,99583.88
2022-10-18T03:39:48.042Z,99582.13
2022-10-18T03:41:50.725Z,99576.88
2022-10-18T03:43:52.821Z,99577.72
2022-10-18T03:45:54.971Z,99566.44
2022-10-18T03:47:57.411Z,99567.25
2022-10-18T03:49:59.969Z,99541.19
2022-10-18T03:52:02.187Z,99559.44
2022-10-18T03:54:04.264Z,99556.81
2022-10-18T03:56:06.585Z,99553.31
2022-10-18T03:58:08.627Z,99548.13
2022-10-18T04:00:11.367Z,99552.44
2022-10-18T04:02:16.297Z,99548.97
2022-10-18T04:04:18.867Z,99538.53
2022-10-18T04:06:21.254Z,99539.41
2022-10-18T04:08:23.458Z,99539.38
2022-10-18T04:10:26.142Z,99543.72
2022-10-18T04:12:31.251Z,99533.28
2022-10-18T04:14:33.852Z,99535.94
2022-10-18T04:18:43.290Z,99521.19
2022-10-18T04:20:45.464Z,99524.72
2022-10-18T04:22:48.961Z,99517.81
2022-10-18T04:24:53.435Z,99515.22
2022-10-18T04:26:55.489Z,99514.41
2022-10-18T04:28:57.720Z,99519.63
2022-10-18T04:31:00.015Z,99513.56
2022-10-18T04:33:02.043Z,99513.59
2022-10-18T04:35:05.203Z,99509.25
2022-10-18T04:37:07.302Z,99504.06
2022-10-18T04:39:09.390Z,99509.31
2022-10-18T04:41:11.712Z,99501.50
2022-10-18T04:43:13.915Z,99474.53
2022-10-18T04:45:17.378Z,99501.53
2022-10-18T04:47:19.530Z,99483.25
2022-10-18T04:49:21.769Z,99492.81
2022-10-18T04:51:24.150Z,99478.94
2022-10-18T04:53:29.254Z,99478.97
2022-10-18T04:55:56.196Z,99474.63
2022-10-18T04:58:22.758Z,99452.03
2022-10-18T05:00:24.849Z,99465.91
2022-10-18T05:02:27.053Z,99464.19
2022-10-18T05:04:32.141Z,99465.94
2022-10-18T05:06:34.209Z,99462.44
2022-10-18T05:09:10.206Z,99458.06
2022-10-18T05:11:12.482Z,99462.41
2022-10-18T05:13:14.496Z,99463.28
2022-10-18T05:15:16.711Z,99465.88
2022-10-18T05:17:18.798Z,99457.19
2022-10-18T05:19:23.659Z,99460.66
2022-10-18T05:21:26.261Z,99471.97
2022-10-18T05:23:28.503Z,99471.09
2022-10-18T05:25:32.865Z,99471.97
2022-10-18T05:27:35.000Z,99456.34
2022-10-18T05:29:37.761Z,99487.59
2022-10-18T05:31:39.876Z,99479.78
2022-10-18T05:33:44.806Z,99464.97
2022-10-18T05:35:47.113Z,99479.78
2022-10-18T05:37:49.336Z,99482.38
2022-10-18T05:39:51.353Z,99472.78
2022-10-18T05:41:53.992Z,99478.88
2022-10-18T05:43:56.221Z,99481.50
2022-10-18T05:45:58.503Z,99466.69
2022-10-18T05:48:01.343Z,99473.63
2022-10-18T05:50:03.786Z,99458.88
2022-10-18T05:52:06.104Z,99445.81
2022-10-18T05:54:08.178Z,99462.31
2022-10-18T05:56:12.118Z,99450.09
2022-10-18T05:58:14.407Z,99439.66
2022-10-18T06:00:18.140Z,99446.63
2022-10-18T06:02:20.291Z,99417.06
2022-10-18T06:04:22.651Z,99437.03
2022-10-18T06:06:24.722Z,99431.81
2022-10-18T06:08:27.074Z,99425.75
2022-10-18T06:10:29.158Z,99413.56
2022-10-18T06:12:33.753Z,99417.03
2022-10-18T06:14:39.481Z,99417.91
2022-10-18T06:16:41.604Z,99417.03
2022-10-18T06:18:43.951Z,99418.75
2022-10-18T06:20:45.861Z,99415.28
2022-10-18T06:22:47.947Z,99415.31
2022-10-18T06:24:53.750Z,99414.44
2022-10-18T06:26:58.777Z,99401.41
2022-10-18T06:29:00.977Z,99396.16
2022-10-18T06:31:05.248Z,99404.00
2022-10-18T06:33:07.485Z,99395.28
2022-10-18T06:35:09.799Z,99377.91
2022-10-18T06:37:12.236Z,99368.28
2022-10-18T06:39:14.394Z,99348.22
2022-10-18T06:41:18.233Z,99311.69
2022-10-18T06:43:21.650Z,99295.19
2022-10-18T06:45:23.956Z,99302.94
2022-10-18T06:47:26.128Z,99249.91
2022-10-18T06:49:28.443Z,99263.75
2022-10-18T06:51:30.487Z,99257.59
2022-10-18T06:53:43.697Z,99263.63
2022-10-18T06:55:53.381Z,99286.25
2022-10-18T06:57:55.475Z,99275.75
2022-10-18T06:59:57.886Z,99270.53
2022-10-18T07:01:59.898Z,99261.81
2022-10-18T07:04:02.142Z,99233.91
2022-10-18T07:06:06.347Z,99228.75
2022-10-18T07:08:08.406Z,99227.81
2022-10-18T07:10:13.029Z,99234.78
2022-10-18T07:12:17.873Z,99231.28
2022-10-18T07:14:19.927Z,99198.13
2022-10-18T07:16:22.179Z,99195.47
2022-10-18T07:18:24.197Z,99187.63
2022-10-18T07:20:27.531Z,99173.66
2022-10-18T07:22:30.481Z,99145.78
2022-10-18T07:26:40.049Z,99143.88
2022-10-18T07:28:44.024Z,99123.91
2022-10-18T07:30:46.157Z,99129.00
2022-10-18T07:32:48.310Z,99102.03
2022-10-18T07:34:50.431Z,99097.66
2022-10-18T07:36:54.778Z,99092.47
2022-10-18T07:38:57.243Z,99085.44
2022-10-18T07:41:06.448Z,99062.78
2022-10-18T07:43:12.000Z,99053.19
2022-10-18T07:45:14.499Z,99017.56
2022-10-18T07:47:16.772Z,99031.38
2022-10-18T07:49:18.901Z,99033.22
2022-10-18T07:51:21.827Z,99019.34
2022-10-18T07:53:24.500Z,98994.28
2022-10-18T07:55:26.669Z,98990.03
2022-10-18T07:57:28.826Z,98998.69
2022-10-18T07:59:30.956Z,98997.78
2022-10-18T08:01:34.600Z,98980.44
2022-10-18T08:03:37.874Z,98968.19
2022-10-18T08:06:03.656Z,98951.72
2022-10-18T08:08:08.011Z,98938.72
2022-10-18T08:10:49.614Z,98917.66
2022-10-18T08:12:53.961Z,98886.31
2022-10-18T08:15:13.390Z,98902.88
2022-10-18T08:17:43.493Z,98840.75
2022-10-18T08:20:11.484Z,98832.75
2022-10-18T08:22:19.151Z,98841.50
2022-10-18T08:24:24.490Z,98877.81
2022-10-18T08:26:26.794Z,98847.34
2022-10-18T08:28:29.213Z,98836.91
2022-10-18T08:30:31.417Z,98830.81
2022-10-18T08:32:34.128Z,98789.88
2022-10-18T08:36:38.772Z,98760.28
2022-10-18T08:38:42.642Z,98733.34
2022-10-18T08:40:50.464Z,98686.56
2022-10-18T08:43:21.986Z,98714.94
2022-10-18T08:45:40.833Z,98713.25
2022-10-18T08:47:49.525Z,98683.69
2022-10-18T08:49:56.891Z,98674.94
2022-10-18T08:52:01.960Z,98681.00
2022-10-18T08:54:16.429Z,98651.44
2022-10-18T08:56:24.318Z,98654.75
2022-10-18T08:58:30.980Z,98652.13
2022-10-18T09:00:40.852Z,98624.28
2022-10-18T09:03:17.666Z,98663.31
2022-10-18T09:05:32.035Z,98656.31
2022-10-18T09:07:51.805Z,98649.41
2022-10-18T09:10:19.925Z,98685.00
2022-10-18T09:12:27.605Z,98684.06
2022-10-18T09:14:35.859Z,98673.53
2022-10-18T09:16:55.863Z,98654.41
2022-10-18T09:19:18.454Z,98647.28
2022-10-18T09:21:26.536Z,98652.50
2022-10-18T09:23:48.737Z,98636.00
2022-10-18T09:26:01.605Z,98622.78
2022-10-18T09:28:27.308Z,98621.69
2022-10-18T09:30:44.759Z,98625.91
2022-10-18T09:32:49.851Z,98624.91
2022-10-18T09:35:15.174Z,98604.81
2022-10-18T09:37:20.235Z,98596.94
2022-10-18T09:39:28.642Z,98573.47
2022-10-18T09:41:39.922Z,98592.25
2022-10-18T09:44:03.488Z,98586.00
2022-10-18T09:46:07.199Z,98572.94
2022-10-18T09:48:21.321Z,98585.75
2022-10-18T09:50:38.426Z,98590.09
2022-10-18T09:53:00.189Z,98593.50
2022-10-18T09:55:13.079Z,98573.28
2022-10-18T09:57:27.105Z,98575.72
2022-10-18T09:59:47.459Z,98566.84
2022-10-18T10:01:52.033Z,98562.34
2022-10-18T10:03:54.015Z,98567.38
2022-10-18T10:06:29.633Z,98565.41
2022-10-18T10:08:35.495Z,98555.66
2022-10-18T10:10:45.993Z,98524.38
2022-10-18T10:12:49.482Z,98535.41
2022-10-18T10:14:52.272Z,98543.00
2022-10-18T10:16:56.325Z,98549.75
2022-10-18T10:18:58.494Z,98525.47
2022-10-18T10:21:13.860Z,98534.75
2022-10-18T10:23:26.971Z,98530.22
2022-10-18T10:25:34.947Z,98538.63
2022-10-18T10:27:43.794Z,98517.78
2022-10-18T10:29:47.063Z,98534.81
2022-10-18T10:32:03.283Z,98537.19
2022-10-18T10:34:07.008Z,98537.13
2022-10-18T10:36:21.387Z,98521.41
2022-10-18T10:38:26.080Z,98527.22
2022-10-18T10:40:31.494Z,98516.59
2022-10-18T10:42:38.089Z,98518.31
2022-10-18T10:44:57.175Z,98510.34
2022-10-18T10:46:59.959Z,98523.16
2022-10-18T10:51:40.479Z,98506.25
2022-10-18T10:53:47.851Z,98501.91
2022-10-18T10:55:54.492Z,98499.03
2022-10-18T10:57:57.066Z,98505.84
2022-10-18T11:00:00.208Z,98494.50
2022-10-18T11:02:29.334Z,98498.69
2022-10-18T11:04:32.174Z,98498.75
2022-10-18T11:06:42.427Z,98490.63
2022-10-18T11:11:14.682Z,98489.94
2022-10-18T11:13:24.182Z,98484.44
2022-10-18T11:15:53.629Z,98484.31
2022-10-18T11:18:17.536Z,98488.59
2022-10-18T11:20:38.078Z,98486.84
2022-10-18T11:23:02.166Z,98504.31
2022-10-18T11:25:06.293Z,98497.34
2022-10-18T11:27:37.691Z,98496.31
2022-10-18T11:30:02.130Z,98503.19
2022-10-18T11:32:13.624Z,98492.50
2022-10-18T11:34:31.464Z,98482.63
2022-10-18T11:37:22.907Z,98486.78
2022-10-18T11:39:41.535Z,98495.38
2022-10-18T11:41:46.224Z,98493.50
2022-10-18T11:44:02.582Z,98477.06
2022-10-18T11:46:31.321Z,98485.34
2022-10-18T11:48:45.722Z,98487.03
2022-10-18T11:51:02.815Z,98485.97
2022-10-18T11:53:26.896Z,98498.94
2022-10-18T11:55:32.053Z,98497.94
2022-10-18T11:58:00.518Z,98493.41
2022-10-18T12:03:03.601Z,98493.19
2022-10-18T12:05:24.458Z,98477.47
2022-10-18T12:07:33.245Z,98477.25
2022-10-18T12:09:41.128Z,98466.84
2022-10-18T12:12:01.690Z,98489.19
2022-10-18T12:14:28.382Z,98492.53
2022-10-18T12:16:50.987Z,98475.16
2022-10-18T12:19:02.887Z,98480.94
2022-10-18T12:21:06.850Z,98472.13
2022-10-18T12:23:20.867Z,98484.31
2022-10-18T12:25:23.710Z,98486.00
2022-10-18T12:27:47.200Z,98488.50
2022-10-18T12:30:03.872Z,98485.66
2022-10-18T12:32:11.518Z,98488.13
2022-10-18T12:34:22.798Z,98489.59
2022-10-18T12:36:57.200Z,98472.03
2022-10-18T12:39:03.280Z,98476.25
2022-10-18T12:41:08.939Z,98453.75
2022-10-18T12:43:18.560Z,98461.44
2022-10-18T12:45:35.081Z,98477.06
2022-10-18T12:47:41.619Z,98458.94
2022-10-18T12:49:44.631Z,98471.78
2022-10-18T12:51:59.915Z,98481.44
2022-10-18T12:54:02.994Z,98481.97
2022-10-18T12:56:29.770Z,98484.41
2022-10-18T12:58:33.078Z,98461.94
2022-10-18T13:00:35.258Z,98485.97
2022-10-18T13:02:39.841Z,98482.06
2022-10-18T13:04:42.398Z,98478.41
2022-10-18T13:07:06.644Z,98480.63
2022-10-18T13:09:21.370Z,98474.13
2022-10-18T13:11:33.441Z,98465.31
2022-10-18T13:16:24.471Z,98488.72
2022-10-18T13:18:43.386Z,98478.22
2022-10-18T13:21:33.766Z,98487.88
2022-10-18T13:23:57.650Z,98476.56
2022-10-18T13:26:32.121Z,98489.84
2022-10-18T13:29:07.434Z,98489.84
2022-10-18T13:31:34.706Z,98491.59
2022-10-18T13:33:39.534Z,98482.84
2022-10-18T13:35:55.120Z,98486.22
2022-10-18T13:38:00.377Z,98477.59
2022-10-18T13:40:25.559Z,98488.72
2022-10-18T13:42:33.596Z,98488.75
2022-10-18T13:44:43.735Z,98490.38
2022-10-18T13:46:46.006Z,98497.16
2022-10-18T13:48:53.811Z,98487.72
2022-10-18T13:51:21.488Z,98484.31
2022-10-18T13:53:45.450Z,98508.44
2022-10-18T13:55:49.822Z,98494.75
2022-10-18T13:58:19.046Z,98504.88
2022-10-18T14:00:44.746Z,98483.72
2022-10-18T14:03:31.682Z,98480.19
2022-10-18T14:06:09.965Z,98521.53
2022-10-18T14:08:49.394Z,98539.13
2022-10-18T14:11:04.303Z,98533.84
2022-10-18T14:13:18.887Z,98535.03
2022-10-18T14:15:29.074Z,98532.41
2022-10-18T14:18:13.498Z,98541.03
2022-10-18T14:20:55.341Z,98536.91
2022-10-18T14:23:29.426Z,98548.50
2022-10-18T14:25:36.036Z,98536.44
2022-10-18T14:28:16.757Z,98533.31
2022-10-18T14:30:28.118Z,98539.78
2022-10-18T14:32:33.541Z,98535.78
2022-10-18T14:34:48.081Z,98488.38
2022-10-18T14:37:01.570Z,98543.72
2022-10-18T14:39:22.823Z,98548.28
2022-10-18T14:42:08.768Z,98560.97
2022-10-18T14:44:29.317Z,98547.66
2022-10-18T14:46:57.049Z,98571.19
2022-10-18T14:49:16.052Z,98564.72
2022-10-18T14:51:32.952Z,98571.69
2022-10-18T14:53:44.418Z,98567.63
2022-10-18T14:56:29.134Z,98578.25
2022-10-18T14:58:41.717Z,98587.00
2022-10-18T15:00:50.317Z,98585.56
2022-10-18T15:03:12.425Z,98594.22
2022-10-18T15:05:20.682Z,98596.91
2022-10-18T15:07:38.773Z,98592.63
2022-10-18T15:09:44.188Z,98584.25
2022-10-18T15:11:55.225Z,98593.03
2022-10-18T15:14:19.579Z,98601.13
2022-10-18T15:16:38.887Z,98602.00
2022-10-18T15:18:41.252Z,98591.56
2022-10-18T15:20:45.944Z,98604.41
2022-10-18T15:22:48.819Z,98619.31
2022-10-18T15:25:06.376Z,98630.53
2022-10-18T15:27:24.419Z,98619.47
2022-10-18T15:29:32.518Z,98631.50
2022-10-18T15:31:37.766Z,98637.66
2022-10-18T15:33:39.840Z,98641.88
2022-10-18T15:35:42.630Z,98636.66
2022-10-18T15:37:47.249Z,98618.50
2022-10-18T15:40:29.282Z,98644.34
2022-10-18T15:42:36.718Z,98644.56
2022-10-18T15:44:51.612Z,98651.72
2022-10-18T15:47:12.456Z,98639.91
2022-10-18T15:49:45.595Z,98657.47
2022-10-18T15:51:50.031Z,98656.91
2022-10-18T15:53:56.518Z,98652.00
2022-10-18T15:56:22.614Z,98659.16
2022-10-18T15:58:27.165Z,98661.00
2022-10-18T16:00:29.531Z,98664.69
2022-10-18T16:02:33.511Z,98673.44
2022-10-18T16:04:39.254Z,98669.31
2022-10-18T16:06:43.949Z,98668.63
2022-10-18T16:09:18.339Z,98668.69
2022-10-18T16:11:24.007Z,98611.78
2022-10-18T16:13:29.662Z,98646.34
2022-10-18T16:15:33.223Z,98646.34
2022-10-18T16:17:35.616Z,98685.25
2022-10-18T16:19:40.203Z,98684.25
2022-10-18T16:21:44.688Z,98692.94
2022-10-18T16:23:48.312Z,98692.03
2022-10-18T16:25:51.546Z,98687.69
2022-10-18T16:27:53.761Z,98700.50
2022-10-18T16:29:56.024Z,98691.91
2022-10-18T16:31:58.604Z,98680.66
2022-10-18T16:34:04.325Z,98704.03
2022-10-18T16:36:14.284Z,98702.59
2022-10-18T16:38:34.126Z,98699.41
2022-10-18T16:40:40.362Z,98707.31
2022-10-18T16:42:48.086Z,98710.03
2022-10-18T16:44:50.258Z,98711.59
2022-10-18T16:46:54.183Z,98726.19
2022-10-18T16:48:58.673Z,98714.19
2022-10-18T16:51:01.352Z,98731.22
2022-10-18T16:53:03.283Z,98734.69
2022-10-18T16:55:06.133Z,98725.09
2022-10-18T16:57:13.605Z,98716.41
2022-10-18T16:59:29.256Z,98720.00
2022-10-18T17:01:31.585Z,98740.72
2022-10-18T17:03:34.223Z,98729.41
2022-10-18T17:05:36.616Z,98728.53
2022-10-18T17:07:38.717Z,98739.03
2022-10-18T17:09:41.406Z,98727.88
2022-10-18T17:11:43.715Z,98727.88
2022-10-18T17:13:46.147Z,98734.03
2022-10-18T17:15:50.760Z,98730.69
2022-10-18T17:17:53.161Z,98716.03
2022-10-18T17:19:56.194Z,98717.72
2022-10-18T17:22:02.397Z,98714.41
2022-10-18T17:24:06.288Z,98714.41
2022-10-18T17:26:28.533Z,98700.06
2022-10-18T17:28:32.265Z,98728.56
2022-10-18T17:30:38.551Z,98729.81
2022-10-18T17:32:44.731Z,98750.81
2022-10-18T17:34:48.022Z,98737.16
2022-10-18T17:36:50.054Z,98745.94
2022-10-18T17:38:53.855Z,98733.22
2022-10-18T17:40:57.040Z,98743.06
2022-10-18T17:42:59.855Z,98744.88
2022-10-18T17:45:04.632Z,98744.19
2022-10-18T17:47:11.060Z,98743.66
2022-10-18T17:49:14.618Z,98740.53
2022-10-18T17:51:17.656Z,98756.38
2022-10-18T17:53:23.103Z,98767.03
2022-10-18T17:55:25.434Z,98762.75
2022-10-18T17:57:27.840Z,98748.19
2022-10-18T17:59:29.771Z,98769.19
2022-10-18T18:01:32.180Z,98775.53
2022-10-18T18:03:34.568Z,98752.47
2022-10-18T18:05:37.021Z,98771.44
2022-10-18T18:07:39.243Z,98764.72
2022-10-18T18:09:41.996Z,98752.91
2022-10-18T18:11:44.849Z,98766.94
2022-10-18T18:13:48.313Z,98766.34
2022-10-18T18:15:50.560Z,98758.75
2022-10-18T18:17:57.196Z,98765.81
2022-10-18T18:20:03.038Z,98754.75
2022-10-18T18:22:05.884Z,98734.91
2022-10-18T18:24:10.255Z,98737.69
2022-10-18T18:26:14.283Z,98764.59
2022-10-18T18:28:16.291Z,98743.94
2022-10-18T18:30:18.605Z,98746.50
2022-10-18T18:32:20.630Z,98755.31
2022-10-18T18:34:22.896Z,98749.41
2022-10-18T18:36:26.438Z,98757.19
2022-10-18T18:38:28.656Z,98754.72
2022-10-18T18:40:30.810Z,98753.91
2022-10-18T18:42:33.227Z,98759.16
2022-10-18T18:44:38.252Z,98734.97
2022-10-18T18:46:40.339Z,98750.53
2022-10-18T18:48:43.103Z,98750.59
2022-10-18T18:50:50.176Z,98748.16
2022-10-18T18:52:52.345Z,98753.34
2022-10-18T18:54:54.536Z,98746.56
2022-10-18T18:56:57.975Z,98765.75
2022-10-18T18:59:00.565Z,98756.22
2022-10-18T19:01:19.942Z,98758.84
2022-10-18T19:03:22.217Z,98764.13
2022-10-18T19:05:25.609Z,98754.75
2022-10-18T19:07:27.834Z,98765.13
2022-10-18T19:09:29.971Z,98756.50
2022-10-18T19:11:35.996Z,98769.47
2022-10-18T19:13:38.858Z,98770.41
2022-10-18T19:15:40.936Z,98782.66
2022-10-18T19:17:43.452Z,98782.75
2022-10-18T19:19:45.743Z,98774.91
2022-10-18T19:21:59.541Z,98771.41
2022-10-18T19:24:02.965Z,98774.91
2022-10-18T19:26:13.695Z,98772.13
2022-10-18T19:28:15.807Z,98765.16
2022-10-18T19:30:20.150Z,98773.69
2022-10-18T19:32:22.436Z,98756.31
2022-10-18T19:34:25.474Z,98777.84
2022-10-18T19:36:28.415Z,98764.75
2022-10-18T19:38:30.357Z,98769.91
2022-10-18T19:40:32.369Z,98772.53
2022-10-18T19:42:38.025Z,98779.50
2022-10-18T19:44:41.202Z,98786.47
2022-10-18T19:46:43.536Z,98777.66
2022-10-18T19:48:45.614Z,98763.84
2022-10-18T19:50:50.725Z,98775.03
2022-10-18T19:52:52.941Z,98767.22
2022-10-18T19:54:55.074Z,98756.81
2022-10-18T19:56:57.175Z,98755.03
2022-10-18T19:59:00.602Z,98768.88
2022-10-18T20:01:05.483Z,98772.28
2022-10-18T20:03:08.575Z,98756.63
2022-10-18T20:05:13.994Z,98760.94
2022-10-18T20:07:16.115Z,98707.47
2022-10-18T20:09:30.263Z,98762.75
2022-10-18T20:11:37.824Z,98760.06
2022-10-18T20:14:10.815Z,98715.22
2022-10-18T20:16:30.834Z,98716.03
2022-10-18T20:18:43.921Z,98685.81
2022-10-18T20:20:56.066Z,98693.56
2022-10-18T20:22:58.107Z,98708.13
2022-10-18T20:25:00.273Z,98736.56
2022-10-18T20:27:02.378Z,98726.22
2022-10-18T20:29:04.836Z,98741.69
2022-10-18T20:31:18.483Z,98742.47
2022-10-18T20:33:20.567Z,98733.72
2022-10-18T20:35:22.736Z,98731.22
2022-10-18T20:37:24.929Z,98745.88
2022-10-18T20:39:26.940Z,98744.09
2022-10-18T20:41:34.895Z,98736.31
2022-10-18T20:43:37.092Z,98748.41
2022-10-18T20:45:39.326Z,98739.75
2022-10-18T20:47:41.355Z,98744.06
2022-10-18T20:49:43.436Z,98736.25
2022-10-18T20:51:45.957Z,98720.75
2022-10-18T20:53:48.761Z,98719.06
2022-10-18T20:55:50.995Z,98717.47
2022-10-18T20:57:53.258Z,98722.84
2022-10-18T20:59:55.403Z,98729.97
2022-10-18T21:01:57.492Z,98737.03
2022-10-18T21:04:05.042Z,98736.25
2022-10-18T21:06:19.419Z,98735.31
2022-10-18T21:08:21.540Z,98732.69
2022-10-18T21:10:24.021Z,98740.47
2022-10-18T21:12:28.739Z,98738.72
2022-10-18T21:14:31.344Z,98725.69
2022-10-18T21:16:35.781Z,98736.81
2022-10-18T21:18:40.714Z,98734.13
2022-10-18T21:20:43.107Z,98740.19
2022-10-18T21:22:46.010Z,98727.09
2022-10-18T21:24:50.047Z,98727.91
2022-10-18T21:26:52.852Z,98723.47
2022-10-18T21:28:58.820Z,98714.72
2022-10-18T21:31:12.926Z,98713.84
2022-10-18T21:33:15.207Z,98721.59
2022-10-18T21:35:17.508Z,98718.97
2022-10-18T21:37:19.663Z,98725.00
2022-10-18T21:41:31.875Z,98720.63
2022-10-18T21:43:33.987Z,98726.69
2022-10-18T21:45:36.158Z,98731.03
2022-10-18T21:47:38.445Z,98723.19
2022-10-18T21:49:40.561Z,98726.69
2022-10-18T21:51:43.251Z,98730.13
2022-10-18T21:53:47.921Z,98714.59
2022-10-18T21:55:49.989Z,98712.84
2022-10-18T21:57:52.096Z,98717.94
2022-10-18T21:59:56.326Z,98713.50
2022-10-18T22:02:01.381Z,98704.84
2022-10-18T22:04:07.239Z,98703.13
2022-10-18T22:06:15.376Z,98689.19
2022-10-18T22:08:17.494Z,98700.47
2022-10-18T22:10:19.796Z,98694.41
2022-10-18T22:12:21.941Z,98692.63
2022-10-18T22:14:24.201Z,98691.81
2022-10-18T22:16:26.681Z,98675.31
2022-10-18T22:18:28.943Z,98676.16
2022-10-18T22:20:31.243Z,98682.31
2022-10-18T22:22:33.906Z,98658.13
2022-10-18T22:24:39.276Z,98663.25
2022-10-18T22:26:43.259Z,98670.16
2022-10-18T22:28:46.423Z,98658.03
2022-10-18T22:30:48.700Z,98659.72
2022-10-18T22:32:50.821Z,98671.00
2022-10-18T22:34:53.493Z,98667.59
2022-10-18T22:36:56.185Z,98659.66
2022-10-18T22:38:58.635Z,98666.56
2022-10-18T22:41:08.458Z,98676.91
2022-10-18T22:43:11.305Z,98667.41
2022-10-18T22:45:13.534Z,98670.78
2022-10-18T22:47:15.569Z,98663.84
2022-10-18T22:49:17.772Z,98632.81
2022-10-18T22:51:21.033Z,98662.16
2022-10-18T22:53:23.355Z,98674.28
2022-10-18T22:55:25.493Z,98662.09
2022-10-18T22:57:29.659Z,98656.06
2022-10-18T22:59:31.899Z,98654.22
2022-10-18T23:01:34.890Z,98646.31
2022-10-18T23:03:37.640Z,98640.31
2022-10-18T23:05:41.563Z,98622.97
2022-10-18T23:07:48.982Z,98631.44
2022-10-18T23:09:51.342Z,98630.66
2022-10-18T23:11:53.396Z,98634.97
2022-10-18T23:13:55.666Z,98622.91
2022-10-18T23:16:04.654Z,98626.22
2022-10-18T23:18:07.642Z,98608.97
2022-10-18T23:20:10.144Z,98607.13
2022-10-18T23:22:15.039Z,98597.56
2022-10-18T23:24:17.103Z,98607.03
2022-10-18T23:26:22.526Z,98593.09
2022-10-18T23:28:25.300Z,98587.03
2022-10-18T23:30:27.523Z,98584.44
2022-10-18T23:32:29.703Z,98593.94
2022-10-18T23:34:32.079Z,98593.16
2022-10-18T23:36:34.478Z,98600.94
2022-10-18T23:38:38.864Z,98601.78
2022-10-18T23:40:41.764Z,98579.28
2022-10-18T23:42:43.777Z,98565.31
2022-10-18T23:44:46.087Z,98567.00
2022-10-18T23:46:48.070Z,98567.81
2022-10-18T23:48:50.840Z,98575.75
2022-10-18T23:50:52.955Z,98574.75
2022-10-18T23:52:55.075Z,98584.44
2022-10-18T23:54:57.183Z,98584.41
2022-10-18T23:56:59.479Z,98581.63
2022-10-18T23:59:01.471Z,98577.31
